sensor_id;sensor_type;location;lat;lon;timestamp;pressure;altitude;pressure_sealevel;temperature;humidity
45789;BME280;31492;54.856;26.318;2022-10-19T02:49:21;997.7;;;9.4;100
45789;BME280;31492;54.856;26.318;2022-10-19T02:54:19;994.9;;;10;100
45789;BME280;31492;54.856;26.318;2022-10-19T02:59:21;994.8;;;10;100
45789;BME280;31492;54.856;26.318;2022-10-19T03:04:19;994.8;;;10.1;100
45789;BME280;31492;54.856;26.318;2022-10-19T03:09:19;994.7;;;10.1;100
45789;BME280;31492;54.856;26.318;2022-10-19T03:14:23;994.6;;;10.1;100
45789;BME280;31492;54.856;26.318;2022-10-19T03:19:25;994.5;;;10.2;100
45789;BME280;31492;54.856;26.318;2022-10-19T03:24:21;994.4;;;10.1;100
45789;BME280;31492;54.856;26.318;2022-10-19T03:29:15;994.3;;;10.1;100
45789;BME280;31492;54.856;26.318;2022-10-19T03:34:13;994.2;;;10;100
45789;BME280;31492;54.856;26.318;2022-10-19T03:38:39;994.1;;;10.1;100
45789;BME280;31492;54.856;26.318;2022-10-19T03:44:23;994.1;;;10.1;100
45789;BME280;31492;54.856;26.318;2022-10-19T03:49:17;994;;;10.1;100
45789;BME280;31492;54.856;26.318;2022-10-19T03:54:21;993.9;;;10.1;100
45789;BME280;31492;54.856;26.318;2022-10-19T03:59:15;993.8;;;10.1;100
45789;BME280;31492;54.856;26.318;2022-10-19T04:04:21;993.7;;;10;100
45789;BME280;31492;54.856;26.318;2022-10-19T04:09:18;993.7;;;10.1;100
45789;BME280;31492;54.856;26.318;2022-10-19T04:14:18;993.6;;;10.1;100
45789;BME280;31492;54.856;26.318;2022-10-19T04:19:21;993.6;;;10.1;100
45789;BME280;31492;54.856;26.318;2022-10-19T04:24:25;993.6;;;10.1;100
45789;BME280;31492;54.856;26.318;2022-10-19T04:29:20;993.5;;;10.1;100
45789;BME280;31492;54.856;26.318;2022-10-19T04:34:23;993.5;;;10.1;100
45789;BME280;31492;54.856;26.318;2022-10-19T04:39:17;993.5;;;10.1;100
45789;BME280;31492;54.856;26.318;2022-10-19T04:44:19;993.6;;;10.1;100
45789;BME280;31492;54.856;26.318;2022-10-19T04:49:15;993.7;;;10.1;100
45789;BME280;31492;54.856;26.318;2022-10-19T04:54:15;993.7;;;10.1;100
45789;BME280;31492;54.856;26.318;2022-10-19T04:59:25;993.7;;;10.1;100
45789;BME280;31492;54.856;26.318;2022-10-19T05:04:15;993.8;;;10;100
45789;BME280;31492;54.856;26.318;2022-10-19T05:09:15;993.8;;;9.9;100
45789;BME280;31492;54.856;26.318;2022-10-19T05:14:17;993.9;;;9.8;100
45789;BME280;31492;54.856;26.318;2022-10-19T05:19:19;993.9;;;9.6;100
45789;BME280;31492;54.856;26.318;2022-10-19T05:24:20;994;;;9.5;100
45789;BME280;31492;54.856;26.318;2022-10-19T05:29:10;994.2;;;9.4;100
45789;BME280;31492;54.856;26.318;2022-10-19T05:34:19;994.3;;;9.4;100
45789;BME280;31492;54.856;26.318;2022-10-19T05:39:17;994.3;;;9.3;100
45789;BME280;31492;54.856;26.318;2022-10-19T05:44:22;994.5;;;9.3;100
45789;BME280;31492;54.856;26.318;2022-10-19T05:49:18;994.6;;;9.2;100
45789;BME280;31492;54.856;26.318;2022-10-19T05:54:23;994.6;;;9.2;100
45789;BME280;31492;54.856;26.318;2022-10-19T05:59:22;994.7;;;9.2;100
45789;BME280;31492;54.856;26.318;2022-10-19T06:04:17;994.8;;;9.3;100
45789;BME280;31492;54.856;26.318;2022-10-19T06:09:21;994.8;;;9.3;100
45789;BME280;31492;54.856;26.318;2022-10-19T06:14:23;994.8;;;9.4;100
45789;BME280;31492;54.856;26.318;2022-10-19T06:19:15;994.9;;;9.4;100
45789;BME280;31492;54.856;26.318;2022-10-19T06:24:19;995;;;9.4;100
45789;BME280;31492;54.856;26.318;2022-10-19T06:29:08;995;;;9.4;100
45789;BME280;31492;54.856;26.318;2022-10-19T06:34:21;995;;;9.5;100
45789;BME280;31492;54.856;26.318;2022-10-19T06:39:11;995.1;;;9.5;100
45789;BME280;31492;54.856;26.318;2022-10-19T06:44:15;995.1;;;9.7;100
45789;BME280;31492;54.856;26.318;2022-10-19T06:49:13;995.2;;;9.8;100
45789;BME280;31492;54.856;26.318;2022-10-19T06:54:25;995.2;;;9.8;100
45789;BME280;31492;54.856;26.318;2022-10-19T06:59:17;995.3;;;9.8;100
45789;BME280;31492;54.856;26.318;2022-10-19T07:04:23;995.4;;;9.8;100
45789;BME280;31492;54.856;26.318;2022-10-19T07:09:19;995.4;;;9.8;100
45789;BME280;31492;54.856;26.318;2022-10-19T07:14:21;995.5;;;9.7;100
45789;BME280;31492;54.856;26.318;2022-10-19T07:19:19;995.5;;;9.5;100
45789;BME280;31492;54.856;26.318;2022-10-19T07:24:13;995.6;;;9.8;100
45789;BME280;31492;54.856;26.318;2022-10-19T07:29:21;995.6;;;10;100
45789;BME280;31492;54.856;26.318;2022-10-19T07:34:15;995.6;;;10.5;100
45789;BME280;31492;54.856;26.318;2022-10-19T07:39:13;995.6;;;10.7;100
45789;BME280;31492;54.856;26.318;2022-10-19T07:44:13;995.7;;;10.6;100
45789;BME280;31492;54.856;26.318;2022-10-19T07:49:19;995.8;;;10.4;100
45789;BME280;31492;54.856;26.318;2022-10-19T07:54:21;995.8;;;10.3;100
45789;BME280;31492;54.856;26.318;2022-10-19T07:59:15;995.9;;;10.4;100
45789;BME280;31492;54.856;26.318;2022-10-19T08:04:21;995.9;;;10.6;100
45789;BME280;31492;54.856;26.318;2022-10-19T08:09:17;995.9;;;10.6;100
45789;BME280;31492;54.856;26.318;2022-10-19T08:14:21;995.9;;;10.6;100
45789;BME280;31492;54.856;26.318;2022-10-19T08:19:21;995.9;;;10.6;100
45789;BME280;31492;54.856;26.318;2022-10-19T08:24:21;995.9;;;11.3;100
45789;BME280;31492;54.856;26.318;2022-10-19T08:29:21;995.9;;;12;100
45789;BME280;31492;54.856;26.318;2022-10-19T08:34:15;996;;;12.4;100
45789;BME280;31492;54.856;26.318;2022-10-19T08:39:19;996;;;12.4;100
45789;BME280;31492;54.856;26.318;2022-10-19T08:44:27;996;;;13.3;100
45789;BME280;31492;54.856;26.318;2022-10-19T08:49:20;996;;;13.2;100
45789;BME280;31492;54.856;26.318;2022-10-19T08:54:16;996;;;13.6;100
45789;BME280;31492;54.856;26.318;2022-10-19T08:58:52;996.2;;;12.8;100
45789;BME280;31492;54.856;26.318;2022-10-19T09:04:18;996.3;;;12.1;100
45789;BME280;31492;54.856;26.318;2022-10-19T09:09:15;996.4;;;11.7;100
45789;BME280;31492;54.856;26.318;2022-10-19T09:14:22;996.4;;;11.5;100
45789;BME280;31492;54.856;26.318;2022-10-19T09:19:22;996.6;;;11.3;100
45789;BME280;31492;54.856;26.318;2022-10-19T09:24:26;996.7;;;11.2;100
45789;BME280;31492;54.856;26.318;2022-10-19T09:29:23;996.7;;;11.1;100
45789;BME280;31492;54.856;26.318;2022-10-19T09:34:22;996.7;;;11.2;100
45789;BME280;31492;54.856;26.318;2022-10-19T09:39:22;996.9;;;11.2;100
45789;BME280;31492;54.856;26.318;2022-10-19T09:44:24;996.9;;;11;100
45789;BME280;31492;54.856;26.318;2022-10-19T09:48:59;997;;;10.9;100
45789;BME280;31492;54.856;26.318;2022-10-19T09:54:23;997;;;10.8;100
45789;BME280;31492;54.856;26.318;2022-10-19T09:58:50;997.1;;;10.8;100
45789;BME280;31492;54.856;26.318;2022-10-19T10:04:23;997.2;;;11.2;100
45789;BME280;31492;54.856;26.318;2022-10-19T10:09:22;997.2;;;11.9;100
45789;BME280;31492;54.856;26.318;2022-10-19T10:14:18;997.2;;;12.1;100
45789;BME280;31492;54.856;26.318;2022-10-19T10:19:14;997.2;;;12.3;100
45789;BME280;31492;54.856;26.318;2022-10-19T10:24:24;997.2;;;13.3;98.1
45789;BME280;31492;54.856;26.318;2022-10-19T10:29:22;997.3;;;13.8;76.4
45789;BME280;31492;54.856;26.318;2022-10-19T10:34:30;997.3;;;14.1;68.9
45789;BME280;31492;54.856;26.318;2022-10-19T10:39:11;997.3;;;14.3;66.7
45789;BME280;31492;54.856;26.318;2022-10-19T10:44:22;997.3;;;14.6;57.8
45789;BME280;31492;54.856;26.318;2022-10-19T10:49:22;997.4;;;14.4;60.1
45789;BME280;31492;54.856;26.318;2022-10-19T10:54:22;997.4;;;14.7;63.5
45789;BME280;31492;54.856;26.318;2022-10-19T10:58:56;997.4;;;15.3;62.4
45789;BME280;31492;54.856;26.318;2022-10-19T11:04:21;997.4;;;15.8;57.9
45789;BME280;31492;54.856;26.318;2022-10-19T11:09:25;997.4;;;15.8;55.4
45789;BME280;31492;54.856;26.318;2022-10-19T11:14:21;997.4;;;15.9;52.5
45789;BME280;31492;54.856;26.318;2022-10-19T11:19:22;997.5;;;15.4;49.5
45789;BME280;31492;54.856;26.318;2022-10-19T11:24:24;997.7;;;14.2;49.9
45789;BME280;31492;54.856;26.318;2022-10-19T11:29:22;997.7;;;13.3;54
45789;BME280;31492;54.856;26.318;2022-10-19T11:34:29;997.7;;;13.5;60
45789;BME280;31492;54.856;26.318;2022-10-19T11:39:23;997.8;;;13.7;61
45789;BME280;31492;54.856;26.318;2022-10-19T11:44:24;997.8;;;13.6;60.4
45789;BME280;31492;54.856;26.318;2022-10-19T11:49:28;997.7;;;13.9;58.1
45789;BME280;31492;54.856;26.318;2022-10-19T11:54:30;997.7;;;13.9;56
45789;BME280;31492;54.856;26.318;2022-10-19T11:59:27;997.8;;;13.8;56.5
45789;BME280;31492;54.856;26.318;2022-10-19T12:04:26;997.9;;;13.8;55.6
45789;BME280;31492;54.856;26.318;2022-10-19T12:09:23;998;;;13;56.7
45789;BME280;31492;54.856;26.318;2022-10-19T12:14:22;998.1;;;12;60.6
45789;BME280;31492;54.856;26.318;2022-10-19T12:19:11;998.2;;;11.6;58.8
45789;BME280;31492;54.856;26.318;2022-10-19T12:24:22;998.2;;;11.1;61.1
45789;BME280;31492;54.856;26.318;2022-10-19T12:29:18;998.3;;;10.4;65.1
45789;BME280;31492;54.856;26.318;2022-10-19T12:34:25;998.4;;;10;67.1
45789;BME280;31492;54.856;26.318;2022-10-19T12:39:19;998.4;;;9.6;74.2
45789;BME280;31492;54.856;26.318;2022-10-19T12:44:20;998.5;;;9.3;81.1
45789;BME280;31492;54.856;26.318;2022-10-19T12:49:34;998.5;;;9;81.1
45789;BME280;31492;54.856;26.318;2022-10-19T12:54:22;998.6;;;8.8;89
45789;BME280;31492;54.856;26.318;2022-10-19T12:59:21;998.7;;;8.6;86.8
45789;BME280;31492;54.856;26.318;2022-10-19T13:04:17;998.8;;;8.4;86.4
45789;BME280;31492;54.856;26.318;2022-10-19T13:09:25;998.9;;;8.3;87.8
45789;BME280;31492;54.856;26.318;2022-10-19T13:14:41;998.9;;;8.3;95
45789;BME280;31492;54.856;26.318;2022-10-19T13:19:25;998.9;;;8.4;84.8
45789;BME280;31492;54.856;26.318;2022-10-19T13:24:25;999;;;8.6;88.9
45789;BME280;31492;54.856;26.318;2022-10-19T13:29:23;999;;;8.7;83.4
45789;BME280;31492;54.856;26.318;2022-10-19T13:34:22;999.1;;;8.6;78.7
45789;BME280;31492;54.856;26.318;2022-10-19T13:39:17;999.2;;;8.5;86.6
45789;BME280;31492;54.856;26.318;2022-10-19T13:44:22;999.2;;;8.4;86.1
45789;BME280;31492;54.856;26.318;2022-10-19T13:49:28;999.2;;;8.3;81.7
45789;BME280;31492;54.856;26.318;2022-10-19T13:54:07;999.3;;;8.2;76.2
45789;BME280;31492;54.856;26.318;2022-10-19T13:59:29;999.4;;;8.1;72.7
45789;BME280;31492;54.856;26.318;2022-10-19T14:04:19;999.5;;;7.9;72.7
45789;BME280;31492;54.856;26.318;2022-10-19T14:09:58;999.5;;;7.6;67.3
45789;BME280;31492;54.856;26.318;2022-10-19T14:14:26;999.6;;;7.5;81
45789;BME280;31492;54.856;26.318;2022-10-19T14:19:20;999.7;;;7.4;88.6
45789;BME280;31492;54.856;26.318;2022-10-19T14:24:27;999.7;;;7.4;95.6
45789;BME280;31492;54.856;26.318;2022-10-19T14:29:19;999.8;;;7.4;94.3
45789;BME280;31492;54.856;26.318;2022-10-19T14:34:23;999.8;;;7.3;93.7
45789;BME280;31492;54.856;26.318;2022-10-19T14:39:21;999.9;;;7.1;94.4
45789;BME280;31492;54.856;26.318;2022-10-19T14:44:20;1000;;;6.9;99.7
45789;BME280;31492;54.856;26.318;2022-10-19T14:49:11;1000.1;;;6.8;99.4
45789;BME280;31492;54.856;26.318;2022-10-19T14:54:16;1000.1;;;6.8;100
45789;BME280;31492;54.856;26.318;2022-10-19T14:59:18;1000.2;;;6.8;100
45789;BME280;31492;54.856;26.318;2022-10-19T15:04:22;1000.2;;;6.7;100
45789;BME280;31492;54.856;26.318;2022-10-19T15:09:17;1000.2;;;6.7;100
45789;BME280;31492;54.856;26.318;2022-10-19T15:14:14;1000.3;;;6.6;100
45789;BME280;31492;54.856;26.318;2022-10-19T15:19:14;1000.3;;;6.4;100
45789;BME280;31492;54.856;26.318;2022-10-19T15:24:23;1000.4;;;6.2;100
45789;BME280;31492;54.856;26.318;2022-10-19T15:29:19;1000.5;;;6.3;100
45789;BME280;31492;54.856;26.318;2022-10-19T15:34:21;1000.5;;;6.2;100
45789;BME280;31492;54.856;26.318;2022-10-19T15:39:19;1000.5;;;6.1;100
45789;BME280;31492;54.856;26.318;2022-10-19T15:44:38;1000.6;;;5.9;100
45789;BME280;31492;54.856;26.318;2022-10-19T15:54:19;1000.7;;;5.6;100
45789;BME280;31492;54.856;26.318;2022-10-19T15:59:21;1000.7;;;5.5;100
45789;BME280;31492;54.856;26.318;2022-10-19T16:04:19;1000.7;;;5.3;100
45789;BME280;31492;54.856;26.318;2022-10-19T16:09:16;1000.8;;;5.3;100
45789;BME280;31492;54.856;26.318;2022-10-19T16:14:19;1000.9;;;5.2;100
45789;BME280;31492;54.856;26.318;2022-10-19T16:19:19;1001;;;5.1;100
45789;BME280;31492;54.856;26.318;2022-10-19T16:24:17;1001.1;;;5;100
45789;BME280;31492;54.856;26.318;2022-10-19T16:29:23;1001.2;;;4.9;100
45789;BME280;31492;54.856;26.318;2022-10-19T16:34:17;1001.2;;;4.8;100
45789;BME280;31492;54.856;26.318;2022-10-19T16:39:23;1001.3;;;4.6;100
45789;BME280;31492;54.856;26.318;2022-10-19T16:44:21;1001.4;;;4.5;100
45789;BME280;31492;54.856;26.318;2022-10-19T16:49:01;1001.5;;;4.4;100
45789;BME280;31492;54.856;26.318;2022-10-19T16:54:17;1001.5;;;4.3;100
45789;BME280;31492;54.856;26.318;2022-10-19T16:59:21;1001.6;;;4.3;100
45789;BME280;31492;54.856;26.318;2022-10-19T17:04:21;1001.6;;;4.2;100
45789;BME280;31492;54.856;26.318;2022-10-19T17:09:17;1001.7;;;4.1;100
45789;BME280;31492;54.856;26.318;2022-10-19T17:14:17;1001.7;;;4;100
45789;BME280;31492;54.856;26.318;2022-10-19T17:19:24;1001.8;;;4;100
45789;BME280;31492;54.856;26.318;2022-10-19T17:24:19;1001.9;;;4;100
45789;BME280;31492;54.856;26.318;2022-10-19T17:29:23;1001.9;;;3.9;100
45789;BME280;31492;54.856;26.318;2022-10-19T17:34:23;1002;;;3.9;100
45789;BME280;31492;54.856;26.318;2022-10-19T17:39:22;1002;;;3.9;100
45789;BME280;31492;54.856;26.318;2022-10-19T17:44:21;1002;;;3.9;100
45789;BME280;31492;54.856;26.318;2022-10-19T17:49:17;1002;;;3.9;100
45789;BME280;31492;54.856;26.318;2022-10-19T17:54:23;1002;;;4;100
45789;BME280;31492;54.856;26.318;2022-10-19T17:59:21;1002.1;;;4.1;100
45789;BME280;31492;54.856;26.318;2022-10-19T18:04:21;1002.1;;;4.2;100
45789;BME280;31492;54.856;26.318;2022-10-19T18:09:08;1002.2;;;4.4;100
45789;BME280;31492;54.856;26.318;2022-10-19T18:14:21;1002.2;;;4.5;100
45789;BME280;31492;54.856;26.318;2022-10-19T18:19:21;1002.3;;;4.6;100
45789;BME280;31492;54.856;26.318;2022-10-19T18:24:23;1002.3;;;4.6;100
45789;BME280;31492;54.856;26.318;2022-10-19T18:29:24;1002.3;;;4.7;100
45789;BME280;31492;54.856;26.318;2022-10-19T18:34:20;1002.4;;;4.7;100
45789;BME280;31492;54.856;26.318;2022-10-19T18:39:13;1002.4;;;4.8;100
45789;BME280;31492;54.856;26.318;2022-10-19T18:44:22;1002.5;;;4.8;100
45789;BME280;31492;54.856;26.318;2022-10-19T18:49:21;1002.5;;;4.8;100
45789;BME280;31492;54.856;26.318;2022-10-19T18:54:17;1002.6;;;4.9;100
45789;BME280;31492;54.856;26.318;2022-10-19T18:59:09;1002.6;;;4.9;100
45789;BME280;31492;54.856;26.318;2022-10-19T19:04:17;1002.6;;;5;100
45789;BME280;31492;54.856;26.318;2022-10-19T19:09:20;1002.7;;;5;100
45789;BME280;31492;54.856;26.318;2022-10-19T19:14:11;1002.7;;;5.1;100
45789;BME280;31492;54.856;26.318;2022-10-19T19:19:21;1002.8;;;5.1;100
45789;BME280;31492;54.856;26.318;2022-10-19T19:24:22;1002.8;;;5.2;100
45789;BME280;31492;54.856;26.318;2022-10-19T19:29:20;1002.9;;;5.2;100
45789;BME280;31492;54.856;26.318;2022-10-19T19:34:19;1003;;;5.2;100
45789;BME280;31492;54.856;26.318;2022-10-19T19:39:21;1003.1;;;5.2;100
45789;BME280;31492;54.856;26.318;2022-10-19T19:44:21;1003.2;;;5.2;100
45789;BME280;31492;54.856;26.318;2022-10-19T19:49:19;1003.2;;;5.1;100
45789;BME280;31492;54.856;26.318;2022-10-19T19:54:19;1003.3;;;5.1;100
45789;BME280;31492;54.856;26.318;2022-10-19T19:59:21;1003.3;;;5;100
45789;BME280;31492;54.856;26.318;2022-10-19T20:04:21;1003.4;;;4.9;100
45789;BME280;31492;54.856;26.318;2022-10-19T20:09:21;1003.4;;;4.7;100
45789;BME280;31492;54.856;26.318;2022-10-19T20:14:21;1003.5;;;4.6;100
45789;BME280;31492;54.856;26.318;2022-10-19T20:19:17;1003.6;;;4.5;100
45789;BME280;31492;54.856;26.318;2022-10-19T20:24:21;1003.6;;;4.5;100
45789;BME280;31492;54.856;26.318;2022-10-19T20:29:21;1003.7;;;4.6;100
45789;BME280;31492;54.856;26.318;2022-10-19T20:34:21;1003.7;;;4.7;100
45789;BME280;31492;54.856;26.318;2022-10-19T20:39:16;1003.8;;;4.7;100
45789;BME280;31492;54.856;26.318;2022-10-19T20:44:21;1003.8;;;4.7;100
45789;BME280;31492;54.856;26.318;2022-10-19T20:49:10;1003.9;;;4.7;100
45789;BME280;31492;54.856;26.318;2022-10-19T20:54:23;1003.9;;;4.7;100
45789;BME280;31492;54.856;26.318;2022-10-19T20:59:23;1004;;;4.7;100
45789;BME280;31492;54.856;26.318;2022-10-19T21:04:24;1004;;;4.6;100
45789;BME280;31492;54.856;26.318;2022-10-19T21:09:18;1004.1;;;4.4;100
45789;BME280;31492;54.856;26.318;2022-10-19T21:14:22;1004.1;;;4.3;100
45789;BME280;31492;54.856;26.318;2022-10-19T21:19:24;1004.2;;;4.1;100
45789;BME280;31492;54.856;26.318;2022-10-19T21:24:22;1004.2;;;4;100
45789;BME280;31492;54.856;26.318;2022-10-19T21:29:19;1004.2;;;3.9;100
45789;BME280;31492;54.856;26.318;2022-10-19T21:34:19;1004.2;;;3.8;100
45789;BME280;31492;54.856;26.318;2022-10-19T21:39:20;1004.2;;;3.6;100
45789;BME280;31492;54.856;26.318;2022-10-19T21:44:16;1004.3;;;3.6;100
45789;BME280;31492;54.856;26.318;2022-10-19T21:49:20;1004.3;;;3.4;100
45789;BME280;31492;54.856;26.318;2022-10-19T21:54:16;1004.4;;;3.3;100
45789;BME280;31492;54.856;26.318;2022-10-19T21:59:22;1004.4;;;3.1;100
45789;BME280;31492;54.856;26.318;2022-10-19T22:04:24;1004.5;;;3;100
45789;BME280;31492;54.856;26.318;2022-10-19T22:09:20;1004.5;;;2.8;100
45789;BME280;31492;54.856;26.318;2022-10-19T22:14:20;1004.5;;;2.8;100
45789;BME280;31492;54.856;26.318;2022-10-19T22:19:14;1004.5;;;2.6;100
45789;BME280;31492;54.856;26.318;2022-10-19T22:24:16;1004.6;;;2.5;100
45789;BME280;31492;54.856;26.318;2022-10-19T22:29:14;1004.6;;;2.4;100
45789;BME280;31492;54.856;26.318;2022-10-19T22:34:16;1004.7;;;2.2;100
45789;BME280;31492;54.856;26.318;2022-10-19T22:39:20;1004.7;;;2.1;100
45789;BME280;31492;54.856;26.318;2022-10-19T22:44:16;1004.8;;;2;100
45789;BME280;31492;54.856;26.318;2022-10-19T22:49:16;1004.8;;;1.8;100
45789;BME280;31492;54.856;26.318;2022-10-19T22:54:16;1004.8;;;1.8;100
45789;BME280;31492;54.856;26.318;2022-10-19T22:59:18;1004.8;;;1.8;100
45789;BME280;31492;54.856;26.318;2022-10-19T23:04:18;1004.9;;;1.7;100
45789;BME280;31492;54.856;26.318;2022-10-19T23:09:12;1004.9;;;1.7;100
45789;BME280;31492;54.856;26.318;2022-10-19T23:14:16;1005;;;1.6;100
45789;BME280;31492;54.856;26.318;2022-10-19T23:19:18;1005;;;1.6;100
